TimeCET,TemperatureF,Dew PointF,Humidity,Sea Level PressureIn,VisibilityMPH,Wind Direction,Wind SpeedMPH,Gust SpeedMPH,PrecipitationIn,Events,Conditions,WindDirDegrees,DateUTC
12:00 AM,37.4,37.4,100,29.56,1.2,WNW,2.3,-,N/A,,Overcast,300,2013-03-09 23:00:00
1:00 AM,37.4,37.4,100,29.56,1.2,Calm,Calm,-,N/A,,Overcast,0,2013-03-10 00:00:00
1:25 AM,37.4,37.4,100,29.56,0.7,West,1.2,-,N/A,,Overcast,260,2013-03-10 00:25:00
2:00 AM,37.4,37.4,100,29.56,0.7,West,2.3,-,N/A,,Overcast,280,2013-03-10 01:00:00
3:00 AM,37.4,37.4,100,29.56,0.5,Calm,Calm,-,N/A,Fog,Fog,0,2013-03-10 02:00:00
3:02 AM,37.4,37.4,100,29.53,0.3,Calm,Calm,-,N/A,Fog,Fog,0,2013-03-10 02:02:00
3:21 AM,37.4,37.4,100,29.53,0.2,Calm,Calm,-,N/A,Fog,Fog,0,2013-03-10 02:21:00
3:51 AM,37.4,37.4,100,29.53,0.2,Calm,Calm,-,N/A,Fog,Fog,0,2013-03-10 02:51:00
4:00 AM,37.4,37.4,100,29.53,0.2,Calm,Calm,-,N/A,Fog,Fog,0,2013-03-10 03:00:00
5:00 AM,39.2,37.4,93,29.53,0.1,Calm,Calm,-,N/A,Fog,Fog,0,2013-03-10 04:00:00
6:00 AM,39.2,37.4,93,29.53,0.2,Calm,Calm,-,N/A,Fog,Fog,0,2013-03-10 05:00:00
7:00 AM,39.2,39.2,100,29.50,0.1,East,3.5,-,N/A,Fog,Fog,100,2013-03-10 06:00:00
8:00 AM,39.2,39.2,100,29.50,0.2,Variable,1.2,-,N/A,Fog,Fog,0,2013-03-10 07:00:00
8:36 AM,41.0,41.0,100,29.50,0.5,Variable,2.3,-,N/A,Fog,Fog,0,2013-03-10 07:36:00
9:00 AM,41.0,41.0,100,29.50,0.9,Variable,2.3,-,N/A,,Overcast,0,2013-03-10 08:00:00
10:00 AM,42.8,42.8,100,29.50,1.2,Variable,2.3,-,N/A,,Overcast,0,2013-03-10 09:00:00
10:20 AM,44.6,42.8,93,29.50,2.2,Variable,1.2,-,N/A,,Overcast,0,2013-03-10 09:20:00
11:00 AM,44.6,42.8,93,29.50,2.2,Calm,Calm,-,N/A,,Overcast,0,2013-03-10 10:00:00
12:00 PM,46.4,42.8,87,29.50,-9999.0,Calm,Calm,-,N/A,,Overcast,0,2013-03-10 11:00:00
1:00 PM,48.2,44.6,87,29.47,-9999.0,Variable,2.3,-,N/A,,Overcast,0,2013-03-10 12:00:00
2:00 PM,48.2,44.6,87,29.47,3.7,WNW,3.5,-,N/A,,Overcast,290,2013-03-10 13:00:00
3:00 PM,50.0,44.6,82,29.47,3.7,NE,4.6,-,N/A,,Mostly Cloudy,40,2013-03-10 14:00:00
4:00 PM,48.2,44.6,87,29.44,3.7,Variable,2.3,-,N/A,,Unknown,0,2013-03-10 15:00:00
5:00 PM,48.2,42.8,82,29.44,3.7,NE,4.6,-,N/A,,Unknown,40,2013-03-10 16:00:00
6:00 PM,46.4,42.8,87,29.44,3.7,East,3.5,-,N/A,,Mostly Cloudy,90,2013-03-10 17:00:00
7:00 PM,42.8,41.0,93,29.47,3.7,East,3.5,-,N/A,,Mostly Cloudy,100,2013-03-10 18:00:00
8:00 PM,39.2,37.4,93,29.47,6.2,East,4.6,-,N/A,,Partly Cloudy,100,2013-03-10 19:00:00
9:00 PM,39.2,37.4,93,29.44,6.2,ESE,3.5,-,N/A,,Mostly Cloudy,110,2013-03-10 20:00:00
10:00 PM,39.2,39.2,100,29.44,6.2,East,3.5,-,N/A,,Mostly Cloudy,100,2013-03-10 21:00:00
11:00 PM,41.0,41.0,100,29.44,6.2,Variable,2.3,-,N/A,,Mostly Cloudy,0,2013-03-10 22:00:00